レイキャビク/ケフラヴィーク の空港の天気 - METARとTAF

ケフラヴィーク国際空港 ( BIKF / KEF ) - アイスランド ケプラヴィーク
飛行場実況気象(Metar)
観測時間10/16 06:30 GMT (10/16 06:30 UTC)
風向・風速北北東 7m/s
視程10km以上
天気現象弱い雨
少しの雲 雲底高度 610m
全天の8割程度の雲 雲底高度 790m
全天を覆う雲 雲底高度 1160m
気温6℃
湿度93%
気圧976hPa
METARBIKF 160630Z 02013KT 9999 -RA FEW020 BKN026 OVC038 06/05 Q0976
過去の天気等 Google飛行場航空写真 Wunderground天気予報

過去48時間のMETAR

飛行場予報(TAF)
発表時間: 10/16 04:18 GMT (10/16 04:18 UTC)
予報対象時間: 16日6時 GMT ~ 17日6時 GMT
風向・風速北東 8m/s
視程5000m
天気現象雨霧雨
全天の8割程度の雲 雲底高度 300m
全天を覆う雲 雲底高度 610m
16日9時 GMT ~ 16日11時 GMT に徐々に
風向・風速北北西 7m/s
天気現象
全天の8割程度の雲 雲底高度 460m
全天を覆う雲 雲底高度 700m
16日10時 GMT ~ 16日19時 GMT に一時的に
風向・風速北北西 9m/s 瞬間風速 14m/s
視程5000m
天気現象雨霧雨
全天を覆う雲 雲底高度 370m
16日19時 GMT ~ 16日21時 GMT に徐々に
風向・風速北北西 13m/s 瞬間風速 18m/s
天気現象しゅう雨
全天の8割程度の積乱雲 雲底高度 370m
TAF BIKF 160418Z 1606/1706 04015KT 5000 RADZ BKN010 OVC020 TX07/1612Z TN05/1703Z
BECMG 1609/1611 33013KT RA BKN015 OVC023
TEMPO 1610/1619 33018G28KT 5000 RADZ OVC012
BECMG 1619/1621 33025G35KT SHRA BKN012CB